Time;durP1;ratioP1;P1;durP2;ratioP2;P2;SDS_P1;SDS_P2;PMS_P1;PMS_P2;Temp;Humidity;BMP_temperature;BMP_pressure;BME280_temperature;BME280_humidity;BME280_pressure;Samples;Min_cycle;Max_cycle;Signal;HPM_P1;HPM_P2
2022/01/29 00:00:21;;;;;;;16.73;7.20;;;;;;;;;;6134922;23;20025;-96
2022/01/29 00:02:47;;;;;;;16.83;7.40;;;;;;;;;;6160688;23;20397;-94
2022/01/29 00:05:13;;;;;;;14.13;6.68;;;;;;;;;;6132630;23;20013;-91
2022/01/29 00:07:41;;;;;;;17.45;9.13;;;;;;;;;;6132050;23;20018;-92
2022/01/29 00:10:09;;;;;;;14.55;6.32;;;;;;;;;;6108470;23;20077;-91
2022/01/29 00:12:35;;;;;;;21.90;8.05;;;;;;;;;;6108415;23;20025;-89
2022/01/29 00:15:02;;;;;;;17.75;7.07;;;;;;;;;;6109198;23;20021;-93
2022/01/29 00:17:28;;;;;;;16.95;8.18;;;;;;;;;;6134249;23;20017;-91
2022/01/29 00:19:54;;;;;;;15.60;8.57;;;;;;;;;;6110305;23;20009;-91
2022/01/29 00:22:20;;;;;;;19.73;8.88;;;;;;;;;;6133689;23;20021;-91
2022/01/29 00:24:46;;;;;;;27.58;10.38;;;;;;;;;;6108874;23;20032;-92
2022/01/29 00:27:12;;;;;;;17.52;9.63;;;;;;;;;;6133256;23;20014;-93
2022/01/29 00:29:41;;;;;;;24.45;9.40;;;;;;;;;;6133723;23;20036;-91
2022/01/29 00:32:08;;;;;;;18.83;7.97;;;;;;;;;;6110349;23;20068;-89
2022/01/29 00:34:34;;;;;;;25.42;9.73;;;;;;;;;;6109639;23;20029;-91
2022/01/29 00:37:00;;;;;;;24.08;8.30;;;;;;;;;;6109767;23;20028;-88
2022/01/29 00:39:27;;;;;;;20.88;10.32;;;;;;;;;;6134751;23;20060;-90
2022/01/29 00:41:53;;;;;;;18.17;9.20;;;;;;;;;;6134169;23;20028;-89
2022/01/29 00:44:19;;;;;;;29.42;10.57;;;;;;;;;;6110249;23;20309;-89
2022/01/29 00:46:45;;;;;;;15.57;8.05;;;;;;;;;;6134218;23;20440;-90
2022/01/29 00:49:13;;;;;;;23.77;9.27;;;;;;;;;;6133550;23;20490;-89
2022/01/29 00:51:39;;;;;;;16.17;8.05;;;;;;;;;;6134103;23;20026;-90
2022/01/29 00:54:05;;;;;;;18.75;8.23;;;;;;;;;;6136706;23;20014;-93
2022/01/29 00:56:31;;;;;;;22.48;8.88;;;;;;;;;;6137338;23;20021;-90
2022/01/29 00:58:58;;;;;;;21.95;9.45;;;;;;;;;;6110673;23;20104;-92
2022/01/29 01:01:24;;;;;;;18.45;10.32;;;;;;;;;;6134663;23;20060;-91
2022/01/29 01:03:50;;;;;;;20.92;9.88;;;;;;;;;;6136830;23;20018;-90
2022/01/29 01:06:16;;;;;;;29.10;10.25;;;;;;;;;;6112292;23;20031;-93
2022/01/29 01:08:42;;;;;;;17.75;9.45;;;;;;;;;;6136086;23;20096;-92
2022/01/29 01:11:08;;;;;;;27.40;10.68;;;;;;;;;;6111756;23;20490;-92
2022/01/29 01:13:35;;;;;;;17.80;7.80;;;;;;;;;;6136083;23;20017;-93
2022/01/29 01:16:02;;;;;;;27.85;9.88;;;;;;;;;;6111215;23;20522;-91
2022/01/29 01:18:28;;;;;;;30.48;10.75;;;;;;;;;;6135538;23;20021;-91
2022/01/29 01:20:54;;;;;;;24.83;8.10;;;;;;;;;;6137464;23;20021;-90
2022/01/29 01:23:21;;;;;;;16.75;9.23;;;;;;;;;;6133275;23;20105;-89
2022/01/29 01:25:47;;;;;;;21.13;8.00;;;;;;;;;;6130144;23;20045;-92
2022/01/29 01:28:14;;;;;;;17.30;7.63;;;;;;;;;;6130003;23;20084;-89
2022/01/29 01:30:40;;;;;;;13.82;8.40;;;;;;;;;;6132052;23;20448;-89
2022/01/29 01:33:06;;;;;;;20.95;9.50;;;;;;;;;;6131514;23;20060;-90
2022/01/29 01:35:38;;;;;;;19.60;8.40;;;;;;;;;;6129692;23;20029;-93
2022/01/29 01:38:19;;;;;;;19.98;8.73;;;;;;;;;;6105641;23;20049;-90
2022/01/29 01:40:54;;;;;;;22.83;10.13;;;;;;;;;;6130475;23;20014;-89
2022/01/29 01:43:20;;;;;;;20.00;9.88;;;;;;;;;;6105115;23;20515;-93
2022/01/29 01:45:47;;;;;;;19.10;9.05;;;;;;;;;;6106150;23;20053;-94
2022/01/29 01:48:13;;;;;;;28.08;8.98;;;;;;;;;;6131101;23;20404;-89
2022/01/29 01:50:39;;;;;;;22.92;9.65;;;;;;;;;;6129621;23;20436;-89
2022/01/29 01:53:05;;;;;;;24.38;10.00;;;;;;;;;;6129502;23;20049;-92
2022/01/29 01:55:32;;;;;;;20.85;7.95;;;;;;;;;;6129589;23;20014;-90
2022/01/29 01:57:58;;;;;;;18.85;8.85;;;;;;;;;;6105553;23;20053;-91
2022/01/29 02:00:25;;;;;;;23.75;9.30;;;;;;;;;;6129220;23;20018;-91
2022/01/29 02:02:51;;;;;;;21.17;8.85;;;;;;;;;;6105662;23;20018;-93
2022/01/29 02:05:17;;;;;;;20.85;9.57;;;;;;;;;;6130210;23;20093;-89
2022/01/29 02:07:44;;;;;;;19.83;8.32;;;;;;;;;;6130621;23;20093;-89
2022/01/29 02:10:12;;;;;;;22.35;8.73;;;;;;;;;;6104797;23;20085;-90
2022/01/29 02:12:47;;;;;;;20.95;9.23;;;;;;;;;;6130758;23;20392;-89
2022/01/29 02:15:14;;;;;;;20.63;8.05;;;;;;;;;;6131019;23;20014;-91
2022/01/29 02:17:40;;;;;;;20.70;9.35;;;;;;;;;;6104552;23;20360;-89
2022/01/29 02:20:07;;;;;;;23.30;8.60;;;;;;;;;;6104858;23;20025;-90
2022/01/29 02:22:33;;;;;;;21.80;8.52;;;;;;;;;;6105759;23;20029;-88
2022/01/29 02:24:59;;;;;;;14.27;6.80;;;;;;;;;;6134814;23;20428;-91
2022/01/29 02:27:25;;;;;;;19.13;7.68;;;;;;;;;;6109176;23;20024;-90
2022/01/29 02:29:51;;;;;;;16.45;9.02;;;;;;;;;;6110448;23;20097;-92
2022/01/29 02:32:17;;;;;;;14.63;8.13;;;;;;;;;;6108752;23;20443;-89
2022/01/29 02:34:44;;;;;;;21.52;9.55;;;;;;;;;;6134767;23;20096;-89
2022/01/29 02:37:11;;;;;;;22.67;8.55;;;;;;;;;;6134553;23;20053;-89
2022/01/29 02:39:37;;;;;;;17.48;7.88;;;;;;;;;;6109577;23;20017;-89
2022/01/29 02:42:04;;;;;;;22.40;8.88;;;;;;;;;;6134907;23;20018;-90
2022/01/29 02:44:31;;;;;;;18.33;8.05;;;;;;;;;;6135582;23;20048;-88
2022/01/29 02:47:14;;;;;;;20.27;7.50;;;;;;;;;;6111440;23;20017;-88
2022/01/29 02:49:40;;;;;;;22.00;8.57;;;;;;;;;;6110485;23;20022;-89
2022/01/29 02:52:06;;;;;;;16.73;9.38;;;;;;;;;;6134805;23;20498;-92
2022/01/29 02:54:34;;;;;;;20.40;7.80;;;;;;;;;;6160816;23;20078;-88
2022/01/29 02:57:00;;;;;;;23.67;9.57;;;;;;;;;;6110422;23;20018;-89
2022/01/29 02:59:26;;;;;;;18.45;8.27;;;;;;;;;;6109885;23;20021;-89
2022/01/29 03:01:53;;;;;;;22.30;8.77;;;;;;;;;;6161706;23;20017;-87
2022/01/29 03:04:19;;;;;;;16.95;8.38;;;;;;;;;;6142585;23;20055;-88
2022/01/29 03:06:45;;;;;;;21.05;10.93;;;;;;;;;;6166258;23;20447;-91
2022/01/29 03:09:11;;;;;;;24.67;11.20;;;;;;;;;;6191216;23;20036;-89
2022/01/29 03:11:37;;;;;;;21.80;8.32;;;;;;;;;;6164073;23;20027;-89
2022/01/29 03:14:03;;;;;;;19.65;10.32;;;;;;;;;;6139689;23;20048;-89
2022/01/29 03:16:30;;;;;;;18.92;8.13;;;;;;;;;;6191326;23;20025;-91
2022/01/29 03:18:56;;;;;;;27.65;9.90;;;;;;;;;;6165298;23;20024;-90
2022/01/29 03:21:22;;;;;;;16.83;8.77;;;;;;;;;;6139538;23;20473;-88
2022/01/29 03:23:48;;;;;;;24.83;9.60;;;;;;;;;;6190718;23;20023;-89
2022/01/29 03:26:14;;;;;;;17.58;9.02;;;;;;;;;;6163243;23;20478;-91
2022/01/29 03:28:40;;;;;;;20.17;9.18;;;;;;;;;;6163669;23;20099;-88
2022/01/29 03:31:09;;;;;;;18.48;9.80;;;;;;;;;;6162989;23;20044;-88
2022/01/29 03:33:36;;;;;;;23.45;9.73;;;;;;;;;;6163360;23;20147;-90
2022/01/29 03:36:02;;;;;;;16.70;8.27;;;;;;;;;;6163172;23;20021;-90
2022/01/29 03:38:28;;;;;;;22.60;10.65;;;;;;;;;;6161803;23;20052;-89
2022/01/29 03:40:57;;;;;;;23.88;9.13;;;;;;;;;;6163135;23;20017;-89
2022/01/29 03:43:30;;;;;;;18.80;9.30;;;;;;;;;;6164633;23;20017;-88
2022/01/29 03:45:57;;;;;;;19.63;10.05;;;;;;;;;;6163535;23;20020;-88
2022/01/29 03:48:23;;;;;;;21.02;11.05;;;;;;;;;;6190921;23;20017;-89
2022/01/29 03:50:49;;;;;;;19.58;9.35;;;;;;;;;;6163506;23;20013;-92
2022/01/29 03:53:15;;;;;;;31.75;12.52;;;;;;;;;;6190195;23;20374;-90
2022/01/29 03:55:41;;;;;;;22.10;10.48;;;;;;;;;;6163637;23;20022;-93
2022/01/29 03:58:07;;;;;;;22.90;9.45;;;;;;;;;;6190477;23;20143;-91
2022/01/29 04:00:34;;;;;;;18.15;9.48;;;;;;;;;;6163371;23;20023;-94
2022/01/29 04:03:00;;;;;;;27.45;11.65;;;;;;;;;;6164264;23;20068;-89
2022/01/29 04:05:26;;;;;;;20.55;9.63;;;;;;;;;;6165171;23;20017;-92
2022/01/29 04:07:53;;;;;;;12.95;8.88;;;;;;;;;;6163941;23;20020;-90
2022/01/29 04:10:20;;;;;;;25.73;10.93;;;;;;;;;;6164718;23;20017;-90
2022/01/29 04:12:50;;;;;;;27.92;10.13;;;;;;;;;;6163793;23;20040;-89
2022/01/29 04:15:16;;;;;;;19.95;8.65;;;;;;;;;;6165139;23;20308;-91
2022/01/29 04:17:42;;;;;;;18.45;10.05;;;;;;;;;;6164543;23;20058;-90
2022/01/29 04:20:08;;;;;;;16.27;9.57;;;;;;;;;;6162951;23;20104;-88
2022/01/29 04:22:34;;;;;;;18.17;9.27;;;;;;;;;;6187936;23;20021;-91
2022/01/29 04:25:00;;;;;;;22.45;9.77;;;;;;;;;;6162459;23;20024;-90
2022/01/29 04:27:36;;;;;;;19.48;9.55;;;;;;;;;;6162780;23;20075;-91
2022/01/29 04:30:08;;;;;;;15.27;8.25;;;;;;;;;;6189294;23;20066;-89
2022/01/29 04:32:57;;;;;;;20.70;9.38;;;;;;;;;;6162001;23;20021;-88
2022/01/29 04:35:20;;;;;;;15.77;8.63;;;;;;;;;;6188374;23;20024;-89
2022/01/29 04:37:49;;;;;;;27.95;9.20;;;;;;;;;;6162770;23;20020;-89
2022/01/29 04:40:16;;;;;;;20.23;9.70;;;;;;;;;;6162587;23;20051;-90
2022/01/29 04:42:42;;;;;;;14.65;8.18;;;;;;;;;;6163149;23;20069;-89
2022/01/29 04:45:08;;;;;;;23.25;10.27;;;;;;;;;;6162489;23;20021;-91
2022/01/29 04:47:34;;;;;;;21.65;10.73;;;;;;;;;;6162654;23;20016;-90
2022/01/29 04:50:00;;;;;;;22.25;11.23;;;;;;;;;;6189424;23;20039;-90
2022/01/29 04:52:26;;;;;;;16.77;8.90;;;;;;;;;;6189429;23;20060;-90
2022/01/29 04:54:52;;;;;;;22.77;9.30;;;;;;;;;;6162429;23;20032;-93
2022/01/29 04:57:19;;;;;;;15.35;9.45;;;;;;;;;;6161937;23;20028;-89
2022/01/29 04:59:45;;;;;;;17.17;9.82;;;;;;;;;;6162607;23;20017;-89
2022/01/29 05:02:11;;;;;;;18.23;10.27;;;;;;;;;;6161895;23;20021;-91
2022/01/29 05:04:37;;;;;;;22.17;8.32;;;;;;;;;;6162529;23;20025;-91
2022/01/29 05:07:03;;;;;;;19.52;11.02;;;;;;;;;;6137999;23;20062;-91
2022/01/29 05:09:30;;;;;;;19.83;10.30;;;;;;;;;;6162500;23;20028;-93
2022/01/29 05:11:58;;;;;;;25.35;11.13;;;;;;;;;;6162583;23;20071;-90
2022/01/29 05:27:55;;;;;;;19.35;9.50;;;;;;;;;;6163196;23;20076;-91
2022/01/29 05:30:21;;;;;;;16.92;9.60;;;;;;;;;;6162674;23;20013;-91
2022/01/29 05:32:47;;;;;;;23.65;11.32;;;;;;;;;;6163865;23;20447;-92
2022/01/29 05:35:13;;;;;;;19.38;12.20;;;;;;;;;;6187503;23;20335;-92
2022/01/29 05:37:39;;;;;;;24.35;10.60;;;;;;;;;;6163080;23;20021;-90
2022/01/29 05:40:06;;;;;;;19.77;9.15;;;;;;;;;;6164595;23;20021;-92
2022/01/29 05:42:32;;;;;;;21.63;11.50;;;;;;;;;;6162382;23;20017;-92
2022/01/29 05:44:58;;;;;;;21.13;10.18;;;;;;;;;;6161876;23;20017;-90
2022/01/29 05:47:24;;;;;;;25.90;11.02;;;;;;;;;;6161417;23;20028;-89
2022/01/29 05:49:50;;;;;;;25.80;10.48;;;;;;;;;;6161511;23;20017;-89
2022/01/29 05:52:16;;;;;;;21.55;10.45;;;;;;;;;;6162250;23;20060;-88
2022/01/29 05:54:42;;;;;;;18.90;8.50;;;;;;;;;;6161045;23;20013;-89
2022/01/29 05:57:09;;;;;;;22.80;10.10;;;;;;;;;;6160316;23;20039;-90
2022/01/29 05:59:36;;;;;;;17.88;8.80;;;;;;;;;;6162901;23;20378;-91
2022/01/29 06:02:02;;;;;;;19.65;10.60;;;;;;;;;;6162283;23;20083;-91
2022/01/29 06:04:28;;;;;;;20.17;9.38;;;;;;;;;;6162079;23;20017;-93
2022/01/29 06:06:54;;;;;;;17.55;8.68;;;;;;;;;;6163306;23;20074;-88
2022/01/29 06:09:20;;;;;;;16.70;8.88;;;;;;;;;;6162407;23;20013;-88
2022/01/29 06:11:46;;;;;;;20.40;10.20;;;;;;;;;;6162634;23;20021;-89
2022/01/29 06:14:13;;;;;;;18.20;10.15;;;;;;;;;;6162093;23;20017;-89
2022/01/29 06:16:39;;;;;;;17.35;8.82;;;;;;;;;;6162399;23;20024;-88
2022/01/29 06:19:05;;;;;;;19.95;10.02;;;;;;;;;;6162856;23;20013;-89
2022/01/29 06:21:31;;;;;;;17.13;9.75;;;;;;;;;;6162922;23;20497;-89
2022/01/29 06:23:58;;;;;;;19.63;10.05;;;;;;;;;;6162351;23;20056;-88
2022/01/29 06:26:24;;;;;;;20.40;11.27;;;;;;;;;;6188915;23;20521;-89
2022/01/29 06:28:51;;;;;;;19.33;10.13;;;;;;;;;;6162661;23;20068;-88
2022/01/29 06:31:17;;;;;;;17.23;9.55;;;;;;;;;;6162306;23;20534;-91
2022/01/29 06:33:43;;;;;;;15.98;8.07;;;;;;;;;;6188930;23;20021;-89
2022/01/29 06:36:12;;;;;;;14.73;7.95;;;;;;;;;;6188036;23;20017;-91
2022/01/29 06:38:41;;;;;;;19.45;11.70;;;;;;;;;;6164152;23;20458;-90
2022/01/29 06:41:07;;;;;;;16.98;8.77;;;;;;;;;;6163294;23;20077;-91
2022/01/29 06:43:36;;;;;;;18.55;9.98;;;;;;;;;;6164003;23;20017;-93
2022/01/29 06:46:02;;;;;;;18.30;9.57;;;;;;;;;;6163290;23;20100;-94
2022/01/29 06:48:28;;;;;;;14.00;8.50;;;;;;;;;;6163475;23;20019;-93
2022/01/29 06:50:54;;;;;;;21.27;9.90;;;;;;;;;;6162821;23;20017;-89
2022/01/29 06:53:21;;;;;;;15.85;9.30;;;;;;;;;;6162839;23;20401;-93
2022/01/29 06:55:47;;;;;;;15.55;9.10;;;;;;;;;;6187758;23;20447;-88
2022/01/29 06:58:13;;;;;;;20.98;7.28;;;;;;;;;;6187791;23;20052;-90
2022/01/29 07:00:39;;;;;;;14.80;8.25;;;;;;;;;;6188847;23;20025;-88
2022/01/29 07:03:05;;;;;;;20.35;10.63;;;;;;;;;;6162519;23;20020;-89
2022/01/29 07:05:31;;;;;;;24.83;10.43;;;;;;;;;;6189156;23;20020;-91
2022/01/29 07:07:57;;;;;;;14.20;8.23;;;;;;;;;;6163736;23;20021;-90
2022/01/29 07:10:24;;;;;;;15.90;8.15;;;;;;;;;;6163041;23;20406;-89
2022/01/29 07:12:50;;;;;;;17.25;8.85;;;;;;;;;;6189299;23;20044;-88
2022/01/29 07:15:16;;;;;;;14.20;8.50;;;;;;;;;;6162919;23;20028;-90
2022/01/29 07:17:51;;;;;;;20.50;8.45;;;;;;;;;;6189727;23;20093;-91
2022/01/29 07:20:17;;;;;;;12.90;8.27;;;;;;;;;;6163741;23;20471;-91
2022/01/29 07:22:43;;;;;;;16.80;9.95;;;;;;;;;;6163075;23;20013;-92
2022/01/29 07:25:09;;;;;;;14.45;9.18;;;;;;;;;;6163276;23;20013;-91
2022/01/29 07:27:38;;;;;;;15.52;8.65;;;;;;;;;;6163714;23;20013;-91
2022/01/29 07:30:07;;;;;;;13.82;7.40;;;;;;;;;;6164902;23;20063;-92
2022/01/29 07:32:33;;;;;;;15.82;7.72;;;;;;;;;;6163977;23;20136;-90
2022/01/29 07:34:59;;;;;;;14.60;8.25;;;;;;;;;;6164900;23;20156;-89
2022/01/29 07:37:28;;;;;;;16.35;7.05;;;;;;;;;;6162938;23;20017;-89
2022/01/29 07:39:54;;;;;;;17.92;8.80;;;;;;;;;;6163368;23;20336;-90
2022/01/29 07:42:24;;;;;;;25.95;8.57;;;;;;;;;;6162917;23;20017;-89
2022/01/29 07:44:59;;;;;;;14.63;8.13;;;;;;;;;;6162410;23;20071;-89
2022/01/29 07:47:26;;;;;;;16.27;7.97;;;;;;;;;;6163237;23;20025;-91
2022/01/29 07:49:55;;;;;;;12.23;7.22;;;;;;;;;;6162890;23;20021;-89
2022/01/29 07:52:21;;;;;;;13.98;8.13;;;;;;;;;;6162904;23;20025;-89
2022/01/29 07:54:47;;;;;;;19.83;8.68;;;;;;;;;;6162059;23;20017;-88
2022/01/29 07:57:14;;;;;;;17.08;8.05;;;;;;;;;;6163466;23;20021;-90
2022/01/29 07:59:46;;;;;;;15.98;6.75;;;;;;;;;;6164509;23;20017;-89
2022/01/29 08:02:18;;;;;;;11.75;6.93;;;;;;;;;;6164382;23;20078;-91
2022/01/29 08:04:48;;;;;;;10.38;5.68;;;;;;;;;;6187982;23;20098;-90
2022/01/29 08:07:23;;;;;;;13.73;6.32;;;;;;;;;;6166579;23;20052;-89
2022/01/29 08:09:49;;;;;;;9.05;5.63;;;;;;;;;;6163044;23;20027;-89
2022/01/29 08:12:17;;;;;;;11.63;6.68;;;;;;;;;;6162766;23;20345;-92
2022/01/29 08:14:44;;;;;;;15.85;7.18;;;;;;;;;;6161833;23;20378;-90
2022/01/29 08:17:13;;;;;;;14.10;6.30;;;;;;;;;;6163751;23;20017;-93
2022/01/29 08:19:39;;;;;;;12.25;6.85;;;;;;;;;;6161879;23;20024;-91
2022/01/29 08:22:08;;;;;;;19.65;8.18;;;;;;;;;;6162891;23;20017;-90
2022/01/29 08:24:35;;;;;;;12.57;6.57;;;;;;;;;;6163576;23;20048;-90
2022/01/29 08:27:01;;;;;;;18.55;7.43;;;;;;;;;;6164358;23;20047;-92
2022/01/29 08:29:36;;;;;;;11.60;6.55;;;;;;;;;;6138606;23;20024;-93
2022/01/29 08:32:02;;;;;;;12.02;7.05;;;;;;;;;;6165371;23;20293;-90
2022/01/29 08:34:31;;;;;;;16.80;6.60;;;;;;;;;;6163520;23;20021;-89
2022/01/29 08:37:03;;;;;;;13.82;5.38;;;;;;;;;;6162726;23;20029;-93
2022/01/29 08:39:32;;;;;;;21.05;6.35;;;;;;;;;;6164030;23;20097;-94
2022/01/29 08:41:58;;;;;;;16.42;5.90;;;;;;;;;;6163828;23;20028;-88
2022/01/29 08:44:27;;;;;;;11.73;5.53;;;;;;;;;;6163064;23;20032;-93
2022/01/29 08:46:53;;;;;;;8.82;5.65;;;;;;;;;;6164716;23;20028;-92
2022/01/29 08:49:22;;;;;;;13.52;5.78;;;;;;;;;;6162579;23;20016;-92
2022/01/29 08:51:48;;;;;;;9.70;4.57;;;;;;;;;;6164302;23;20048;-91
2022/01/29 08:54:14;;;;;;;7.65;3.97;;;;;;;;;;6161969;23;20021;-89
2022/01/29 08:56:40;;;;;;;8.13;5.38;;;;;;;;;;6160417;23;20451;-88
2022/01/29 08:59:06;;;;;;;11.82;4.65;;;;;;;;;;6161267;23;20331;-88
2022/01/29 09:01:32;;;;;;;18.08;5.03;;;;;;;;;;6160703;23;20017;-89
2022/01/29 09:03:59;;;;;;;10.10;4.72;;;;;;;;;;6160313;23;20513;-90
2022/01/29 09:06:25;;;;;;;13.07;4.78;;;;;;;;;;6161830;23;20068;-91
2022/01/29 09:08:52;;;;;;;7.93;4.93;;;;;;;;;;6160697;23;20014;-89
2022/01/29 09:11:19;;;;;;;12.55;4.82;;;;;;;;;;6160880;23;20017;-89
2022/01/29 09:13:45;;;;;;;8.45;4.95;;;;;;;;;;6160970;23;20066;-91
2022/01/29 09:16:11;;;;;;;7.18;4.60;;;;;;;;;;6160572;23;20013;-91
2022/01/29 09:18:37;;;;;;;10.88;5.65;;;;;;;;;;6160276;23;20024;-90
2022/01/29 09:21:04;;;;;;;14.68;4.82;;;;;;;;;;6161429;23;20075;-92
2022/01/29 09:23:30;;;;;;;7.93;3.97;;;;;;;;;;6160421;23;20059;-90
2022/01/29 09:25:56;;;;;;;10.77;4.95;;;;;;;;;;6160984;23;20024;-93
2022/01/29 09:28:22;;;;;;;10.85;4.43;;;;;;;;;;6162090;23;20039;-91
2022/01/29 09:30:49;;;;;;;12.80;4.53;;;;;;;;;;6160908;23;20048;-91
2022/01/29 09:33:15;;;;;;;10.75;4.70;;;;;;;;;;6160433;23;20021;-91
2022/01/29 09:35:42;;;;;;;8.38;3.78;;;;;;;;;;6161362;23;20497;-91
2022/01/29 09:38:09;;;;;;;9.73;3.80;;;;;;;;;;6161013;23;20328;-92
2022/01/29 09:40:35;;;;;;;7.03;3.45;;;;;;;;;;6160854;23;20393;-91
2022/01/29 09:43:03;;;;;;;9.15;4.63;;;;;;;;;;6162593;23;20014;-92
2022/01/29 09:45:29;;;;;;;9.68;4.03;;;;;;;;;;6162430;23;20020;-91
2022/01/29 09:48:01;;;;;;;7.30;3.40;;;;;;;;;;6163147;23;20014;-90
2022/01/29 09:50:28;;;;;;;6.88;4.03;;;;;;;;;;6163054;23;20497;-90
2022/01/29 09:52:54;;;;;;;3.88;2.80;;;;;;;;;;6163539;23;20065;-91
2022/01/29 09:55:20;;;;;;;9.07;3.45;;;;;;;;;;6162536;23;20414;-91
2022/01/29 09:57:46;;;;;;;5.95;3.10;;;;;;;;;;6162011;23;20017;-93
2022/01/29 10:00:13;;;;;;;7.53;3.75;;;;;;;;;;6162779;23;20020;-91
2022/01/29 10:02:39;;;;;;;4.78;3.47;;;;;;;;;;6162827;23;20017;-91
2022/01/29 10:05:07;;;;;;;5.07;3.25;;;;;;;;;;6162536;23;20471;-91
2022/01/29 10:07:33;;;;;;;10.27;3.50;;;;;;;;;;6162617;23;20053;-90
2022/01/29 10:10:01;;;;;;;6.03;2.88;;;;;;;;;;6163249;23;20013;-93
2022/01/29 10:12:28;;;;;;;5.47;2.80;;;;;;;;;;6162265;23;20021;-91
2022/01/29 10:14:55;;;;;;;5.90;2.78;;;;;;;;;;6163903;23;20013;-90
2022/01/29 10:17:38;;;;;;;8.60;3.50;;;;;;;;;;6162916;23;20072;-91
2022/01/29 10:20:15;;;;;;;10.80;2.75;;;;;;;;;;6164067;23;20048;-90
2022/01/29 10:22:41;;;;;;;4.85;2.15;;;;;;;;;;6162870;23;20017;-89
2022/01/29 10:25:12;;;;;;;10.73;3.45;;;;;;;;;;6161847;23;20052;-91
2022/01/29 10:27:38;;;;;;;6.13;3.00;;;;;;;;;;6162302;23;20025;-91
2022/01/29 10:30:05;;;;;;;6.25;2.53;;;;;;;;;;6162309;23;20017;-90
2022/01/29 10:32:33;;;;;;;8.25;3.15;;;;;;;;;;6187606;23;20025;-90
2022/01/29 10:34:59;;;;;;;12.15;2.47;;;;;;;;;;6162139;23;20013;-91
2022/01/29 10:37:26;;;;;;;9.95;2.78;;;;;;;;;;6162389;23;20021;-90
2022/01/29 10:39:53;;;;;;;8.70;3.10;;;;;;;;;;6162590;23;20017;-91
2022/01/29 10:42:21;;;;;;;7.43;2.70;;;;;;;;;;6163330;23;20024;-91
2022/01/29 10:44:48;;;;;;;10.65;2.55;;;;;;;;;;6164258;23;20447;-89
2022/01/29 10:47:15;;;;;;;8.45;2.80;;;;;;;;;;6163576;23;20035;-88
2022/01/29 10:49:50;;;;;;;7.25;2.80;;;;;;;;;;6162587;23;20092;-89
2022/01/29 10:52:17;;;;;;;7.20;2.35;;;;;;;;;;6162738;23;20021;-88
2022/01/29 10:54:44;;;;;;;9.32;2.55;;;;;;;;;;6161823;23;20013;-88
2022/01/29 10:57:11;;;;;;;9.48;3.55;;;;;;;;;;6162470;23;20021;-89
2022/01/29 10:59:45;;;;;;;10.65;2.90;;;;;;;;;;6161889;23;20013;-88
2022/01/29 11:02:12;;;;;;;5.10;2.40;;;;;;;;;;6161717;23;20087;-88
2022/01/29 11:04:39;;;;;;;9.38;2.63;;;;;;;;;;6161796;23;20021;-89
2022/01/29 11:07:11;;;;;;;10.50;2.80;;;;;;;;;;6161749;23;20503;-89
2022/01/29 11:09:40;;;;;;;5.85;2.63;;;;;;;;;;6162448;23;20028;-89
2022/01/29 11:12:06;;;;;;;3.25;2.05;;;;;;;;;;6161500;23;20017;-89
2022/01/29 11:14:33;;;;;;;8.55;2.60;;;;;;;;;;6161624;23;20017;-90
2022/01/29 11:17:00;;;;;;;7.03;2.65;;;;;;;;;;6162532;23;20056;-90
2022/01/29 11:19:26;;;;;;;9.95;2.40;;;;;;;;;;6163066;23;20053;-88
2022/01/29 11:21:53;;;;;;;7.55;2.38;;;;;;;;;;6162782;23;20021;-89
2022/01/29 11:24:22;;;;;;;10.27;2.00;;;;;;;;;;6161850;23;20028;-89
2022/01/29 11:26:49;;;;;;;7.82;2.63;;;;;;;;;;6161265;23;20336;-89
2022/01/29 11:29:26;;;;;;;7.68;2.85;;;;;;;;;;6161968;23;20028;-91
2022/01/29 11:32:27;;;;;;;5.57;2.30;;;10.10;99.90;;;;;;6161676;23;20028;-89
2022/01/29 11:35:09;;;;;;;6.82;2.92;;;;;;;;;;6137631;23;20028;-88
2022/01/29 11:37:57;;;;;;;2.50;2.30;;;10.00;99.90;;;;;;6161571;23;20060;-88
2022/01/29 11:40:38;;;;;;;4.03;1.92;;;;;;;;;;6136924;23;20155;-89
2022/01/29 11:43:19;;;;;;;2.85;2.53;;;;;;;;;;6162396;23;20423;-89
2022/01/29 11:45:52;;;;;;;16.50;1.95;;;;;;;;;;6160952;23;20039;-91
2022/01/29 11:48:31;;;;;;;7.72;2.60;;;;;;;;;;6161326;23;20529;-88
2022/01/29 11:51:08;;;;;;;9.98;3.00;;;;;;;;;;6161095;23;20063;-89
2022/01/29 11:53:46;;;;;;;10.50;2.10;;;;;;;;;;6160631;23;20017;-88
2022/01/29 11:56:30;;;;;;;3.65;2.13;;;;;;;;;;6161625;23;20021;-89
2022/01/29 11:59:24;;;;;;;8.50;1.83;;;10.10;99.90;;;;;;6161900;23;20052;-89
2022/01/29 12:02:00;;;;;;;5.97;1.77;;;;;;;;;;6136922;23;20017;-88
2022/01/29 12:04:45;;;;;;;9.63;2.22;;;;;;;;;;6161899;23;20024;-88
2022/01/29 12:07:14;;;;;;;6.50;1.95;;;;;;;;;;6161079;23;20096;-87
2022/01/29 12:09:51;;;;;;;3.20;2.00;;;;;;;;;;6160748;23;20013;-88
2022/01/29 12:12:21;;;;;;;3.75;1.40;;;;;;;;;;6161430;23;20060;-87
2022/01/29 12:14:48;;;;;;;2.70;1.95;;;;;;;;;;6161833;23;20072;-87
2022/01/29 12:17:33;;;;;;;4.70;1.83;;;;;;;;;;6161217;23;20021;-88
2022/01/29 12:20:01;;;;;;;2.85;1.73;;;;;;;;;;6161130;23;20470;-88
2022/01/29 12:22:28;;;;;;;2.72;1.60;;;;;;;;;;6161069;23;20068;-89
2022/01/29 12:24:55;;;;;;;2.00;1.42;;;;;;;;;;6161133;23;20095;-90
2022/01/29 12:27:22;;;;;;;4.90;1.80;;;;;;;;;;6160841;23;20017;-89
2022/01/29 12:29:48;;;;;;;7.65;2.13;;;;;;;;;;6161895;23;20525;-90
2022/01/29 12:32:14;;;;;;;10.82;2.35;;;;;;;;;;6161042;23;20025;-90
2022/01/29 12:34:40;;;;;;;15.45;2.13;;;;;;;;;;6161292;23;20017;-89
2022/01/29 12:37:14;;;;;;;7.70;2.72;;;;;;;;;;6161465;23;20435;-90
2022/01/29 12:39:54;;;;;;;4.68;2.20;;;;;;;;;;6162026;23;20017;-90
2022/01/29 12:42:33;;;;;;;7.68;2.65;;;;;;;;;;6075916;23;20077;-90
2022/01/29 12:45:18;;;;;;;;;;;;;;;;;;;;;
2022/01/29 12:48:26;;;;;;;11.35;2.53;;;;;;;;;;6097599;23;20089;-90
2022/01/29 12:51:12;;;;;;;4.07;1.75;;;;;;;;;;5960536;23;20027;-90
2022/01/29 12:56:41;;;;;;;7.90;2.65;;;;;;;;;;6197365;23;20024;-90
2022/01/29 12:59:48;;;;;;;;;;;;;;;;;;;;;
2022/01/29 13:02:23;;;;;;;17.85;2.78;;;;;;;;;;6070406;23;20036;-89
2022/01/29 13:05:02;;;;;;;9.23;2.33;;;;;;;;;;6092408;23;20022;-91
2022/01/29 13:07:43;;;;;;;12.50;2.38;;;;;;;;;;6094513;23;20025;-93
2022/01/29 13:13:41;;;;;;;12.43;2.95;;;10.70;99.90;;;;;;6172812;23;20024;-96
2022/01/29 13:16:09;;;;;;;9.20;2.25;;;;;;;;;;6092669;23;20022;-95
2022/01/29 13:18:38;;;;;;;4.68;1.85;;;;;;;;;;6122313;23;20018;-95
2022/01/29 13:21:11;;;;;;;11.27;2.60;;;;;;;;;;6115421;23;20114;-95
2022/01/29 13:23:41;;;;;;;9.77;2.38;;;;;;;;;;6107360;23;20022;-90
2022/01/29 13:26:36;;;;;;;6.18;1.45;;;;;;;;;;6135431;23;20037;-90
2022/01/29 13:29:17;;;;;;;7.07;2.17;;;;;;;;;;6144673;23;20025;-94
2022/01/29 13:32:11;;;;;;;8.67;2.53;;;;;;;;;;6150417;23;20021;-95
2022/01/29 13:34:41;;;;;;;8.38;2.53;;;;;;;;;;6141094;23;20020;-92
2022/01/29 13:37:27;;;;;;;10.02;2.88;;;;;;;;;;6142098;23;20017;-94
2022/01/29 13:39:54;;;;;;;8.10;2.90;;;;;;;;;;6142807;23;20103;-94
2022/01/29 13:42:29;;;;;;;5.93;2.92;;;;;;;;;;6168382;23;20370;-95
2022/01/29 13:45:15;;;;;;;6.28;2.25;;;;;;;;;;6163805;23;20024;-96
2022/01/29 13:50:55;;;;;;;10.23;2.63;;;;;;;;;;6189986;23;20052;-92
2022/01/29 13:53:55;;;;;;;8.50;2.80;;;;;;;;;;6102774;23;20069;-94
2022/01/29 14:04:56;;;;;;;7.70;2.13;;;;;;;;;;6181077;23;20032;-90
2022/01/29 14:07:51;;;;;;;10.48;2.65;;;;;;;;;;6161178;23;20075;-91
2022/01/29 14:13:23;;;;;;;3.28;1.67;;;;;;;;;;6187066;23;20021;-92
2022/01/29 14:21:05;;;;;;;7.90;1.95;;;;;;;;;;6187961;23;20025;-93
2022/01/29 14:29:59;;;;;;;7.22;2.22;;;;;;;;;;6190472;23;20033;-90
2022/01/29 14:39:40;;;;;;;12.02;2.95;;;;;;;;;;6018129;23;20048;-89
2022/01/29 14:58:59;;;;;;;8.18;2.53;;;;;;;;;;6069028;23;20038;-90
2022/01/29 15:05:27;;;;;;;7.43;2.75;;;;;;;;;;6069409;23;20101;-91
2022/01/29 15:10:43;;;;;;;10.00;3.03;;;;;;;;;;6162077;23;20444;-89
2022/01/29 15:13:09;;;;;;;10.23;2.95;;;;;;;;;;6137768;23;20017;-89
2022/01/29 15:15:35;;;;;;;14.13;3.10;;;;;;;;;;6188988;23;20022;-87
2022/01/29 15:18:04;;;;;;;6.00;2.25;;;;;;;;;;6162486;23;20061;-87
2022/01/29 15:20:30;;;;;;;13.55;3.67;;;;;;;;;;6137606;23;20465;-89
2022/01/29 15:22:57;;;;;;;12.38;3.40;;;;;;;;;;6161251;23;20021;-89
2022/01/29 15:25:24;;;;;;;11.93;3.03;;;;;;;;;;6161985;23;20013;-89
2022/01/29 15:27:50;;;;;;;13.65;3.42;;;;;;;;;;6162092;23;20071;-88
2022/01/29 15:30:17;;;;;;;11.65;3.45;;;;;;;;;;6188426;23;20025;-88
2022/01/29 15:32:48;;;;;;;15.00;3.85;;;;;;;;;;6161909;23;20075;-87
2022/01/29 15:35:15;;;;;;;22.08;4.28;;;;;;;;;;6162241;23;20017;-88
2022/01/29 15:37:41;;;;;;;16.73;4.50;;;;;;;;;;6188839;23;20029;-88
2022/01/29 15:40:07;;;;;;;13.48;4.00;;;;;;;;;;6161853;23;20038;-89
2022/01/29 15:42:34;;;;;;;14.50;3.90;;;;;;;;;;6161727;23;20534;-88
2022/01/29 15:45:00;;;;;;;10.45;3.92;;;;;;;;;;6162438;23;20369;-88
2022/01/29 15:47:26;;;;;;;24.88;5.35;;;;;;;;;;6136994;23;20021;-87
2022/01/29 15:50:01;;;;;;;16.05;4.43;;;;;;;;;;6161971;23;20013;-89
2022/01/29 15:52:29;;;;;;;17.92;4.05;;;;;;;;;;6137052;23;20021;-88
2022/01/29 15:54:56;;;;;;;8.65;3.70;;;;;;;;;;6187852;23;20455;-88
2022/01/29 15:57:23;;;;;;;18.85;4.90;;;;;;;;;;6161861;23;20451;-87